createdAt,value
2022-10-05T00:01:32.370Z,7.40
2022-10-05T00:04:15.245Z,7.40
2022-10-05T00:06:46.015Z,7.40
2022-10-05T00:09:19.045Z,7.40
2022-10-05T00:11:47.567Z,7.40
2022-10-05T00:14:21.259Z,7.30
2022-10-05T00:16:50.389Z,7.40
2022-10-05T00:19:27.781Z,7.40
2022-10-05T00:22:00.218Z,7.40
2022-10-05T00:24:28.284Z,7.30
2022-10-05T00:26:58.168Z,7.30
2022-10-05T00:29:28.039Z,7.30
2022-10-05T00:31:56.309Z,7.40
2022-10-05T00:34:26.855Z,7.40
2022-10-05T00:36:55.005Z,7.40
2022-10-05T00:39:23.124Z,7.30
2022-10-05T00:42:26.633Z,7.30
2022-10-05T00:45:02.518Z,7.30
2022-10-05T00:47:48.014Z,7.30
2022-10-05T00:51:00.615Z,7.30
2022-10-05T00:53:42.547Z,7.30
2022-10-05T00:56:34.751Z,7.30
2022-10-05T00:59:31.042Z,7.30
2022-10-05T01:02:11.899Z,7.30
2022-10-05T01:04:48.929Z,7.30
2022-10-05T01:07:35.623Z,7.30
2022-10-05T01:10:19.011Z,7.30
2022-10-05T01:12:57.265Z,7.30
2022-10-05T01:15:36.877Z,7.20
2022-10-05T01:18:15.320Z,7.30
2022-10-05T01:21:00.303Z,7.20
2022-10-05T01:24:24.979Z,7.20
2022-10-05T01:27:17.547Z,7.20
2022-10-05T01:29:59.523Z,7.10
2022-10-05T01:32:37.749Z,7.10
2022-10-05T01:35:22.410Z,7.10
2022-10-05T01:38:09.762Z,7.10
2022-10-05T01:40:50.686Z,7.10
2022-10-05T01:43:26.162Z,7.10
2022-10-05T01:46:06.582Z,7.00
2022-10-05T01:48:49.439Z,7.00
2022-10-05T01:51:28.661Z,7.00
2022-10-05T01:54:08.686Z,7.00
2022-10-05T01:56:47.499Z,6.90
2022-10-05T01:59:31.388Z,6.90
2022-10-05T02:02:07.314Z,6.90
2022-10-05T02:05:01.617Z,6.80
2022-10-05T02:07:34.914Z,6.80
2022-10-05T02:10:13.996Z,6.80
2022-10-05T02:12:45.149Z,6.80
2022-10-05T02:15:18.188Z,6.70
2022-10-05T02:17:53.845Z,6.70
2022-10-05T02:20:29.337Z,6.70
2022-10-05T02:23:04.814Z,6.60
2022-10-05T02:25:38.796Z,6.60
2022-10-05T02:28:13.362Z,6.60
2022-10-05T02:30:49.988Z,6.60
2022-10-05T02:33:27.988Z,6.50
2022-10-05T02:36:01.787Z,6.50
2022-10-05T02:38:45.216Z,6.50
2022-10-05T02:41:31.633Z,6.50
2022-10-05T02:44:11.929Z,6.50
2022-10-05T02:46:49.956Z,6.40
2022-10-05T02:49:33.424Z,6.40
2022-10-05T02:52:15.597Z,6.40
2022-10-05T02:54:55.111Z,6.40
2022-10-05T02:57:34.654Z,6.40
2022-10-05T03:00:10.618Z,6.40
2022-10-05T03:02:48.449Z,6.40
2022-10-05T03:05:26.182Z,6.40
2022-10-05T03:08:02.909Z,6.40
2022-10-05T03:10:40.994Z,6.30
2022-10-05T03:13:21.562Z,6.30
2022-10-05T03:16:10.247Z,6.30
2022-10-05T03:18:58.517Z,6.30
2022-10-05T03:21:50.332Z,6.30
2022-10-05T03:24:52.925Z,6.20
2022-10-05T03:27:37.518Z,6.20
2022-10-05T03:30:14.781Z,6.20
2022-10-05T03:32:58.232Z,6.20
2022-10-05T03:35:33.482Z,6.20
2022-10-05T03:38:16.409Z,6.10
2022-10-05T03:40:55.707Z,6.10
2022-10-05T03:44:03.209Z,6.10
2022-10-05T03:46:50.397Z,6.10
2022-10-05T03:49:31.454Z,6.10
2022-10-05T03:52:07.984Z,6.10
2022-10-05T03:54:45.203Z,6.10
2022-10-05T03:57:19.888Z,6.10
2022-10-05T03:59:59.797Z,6.10
2022-10-05T04:02:34.594Z,6.10
2022-10-05T04:05:14.809Z,6.10
2022-10-05T04:07:51.477Z,6.10
2022-10-05T04:10:27.265Z,6.10
2022-10-05T04:13:03.943Z,6.10
2022-10-05T04:15:40.794Z,6.10
2022-10-05T04:18:26.544Z,6.10
2022-10-05T04:21:03.094Z,6.00
2022-10-05T04:23:47.913Z,6.00
2022-10-05T04:26:25.812Z,6.00
2022-10-05T04:29:00.078Z,6.00
2022-10-05T04:31:56.873Z,6.00
2022-10-05T04:34:49.745Z,6.00
2022-10-05T04:37:29.738Z,6.00
2022-10-05T04:40:17.053Z,6.00
2022-10-05T04:42:59.690Z,6.00
2022-10-05T04:45:50.716Z,6.00
2022-10-05T04:48:37.707Z,6.00
2022-10-05T04:51:27.233Z,6.00
2022-10-05T04:54:02.616Z,6.00
2022-10-05T04:56:41.105Z,6.00
2022-10-05T04:59:58.754Z,6.00
2022-10-05T05:02:44.212Z,6.00
2022-10-05T05:05:53.037Z,5.90
2022-10-05T05:08:58.046Z,5.90
2022-10-05T05:11:37.256Z,5.90
2022-10-05T05:14:34.908Z,5.90
2022-10-05T05:17:19.978Z,5.80
2022-10-05T05:20:02.919Z,5.80
2022-10-05T05:22:47.168Z,5.80
2022-10-05T05:25:35.751Z,5.80
2022-10-05T05:28:18.825Z,5.80
2022-10-05T05:31:01.100Z,5.80
2022-10-05T05:33:48.244Z,5.80
2022-10-05T05:36:46.486Z,5.70
2022-10-05T05:39:27.088Z,5.70
2022-10-05T05:42:06.202Z,5.80
2022-10-05T05:44:42.148Z,5.80
2022-10-05T05:47:21.566Z,5.80
2022-10-05T05:50:13.802Z,5.80
2022-10-05T05:52:47.942Z,5.90
2022-10-05T05:55:29.043Z,5.90
2022-10-05T05:58:10.531Z,5.90
2022-10-05T06:00:46.694Z,6.00
2022-10-05T06:03:23.859Z,6.10
2022-10-05T06:05:57.702Z,6.10
2022-10-05T06:08:37.767Z,6.20
2022-10-05T06:11:21.022Z,6.30
2022-10-05T06:13:49.935Z,6.30
2022-10-05T06:16:26.375Z,6.30
2022-10-05T06:19:01.625Z,6.40
2022-10-05T06:21:40.356Z,6.50
2022-10-05T06:24:22.875Z,6.60
2022-10-05T06:27:22.618Z,6.60
2022-10-05T06:30:11.035Z,6.70
2022-10-05T06:33:07.640Z,6.80
2022-10-05T06:35:59.228Z,6.80
2022-10-05T06:39:06.810Z,6.90
2022-10-05T06:41:52.333Z,7.00
2022-10-05T06:44:29.670Z,7.10
2022-10-05T06:47:27.920Z,7.20
2022-10-05T06:50:19.683Z,7.40
2022-10-05T06:53:36.055Z,7.50
2022-10-05T06:56:14.698Z,7.70
2022-10-05T06:58:56.026Z,7.90
2022-10-05T07:01:47.753Z,8.10
2022-10-05T07:04:38.945Z,8.30
2022-10-05T07:07:21.884Z,8.50
2022-10-05T07:10:13.556Z,8.80
2022-10-05T07:12:57.220Z,9.00
2022-10-05T07:15:51.077Z,9.20
2022-10-05T07:18:46.951Z,9.40
2022-10-05T07:21:31.381Z,9.60
2022-10-05T07:24:14.963Z,9.80
2022-10-05T07:26:51.469Z,10.00
2022-10-05T07:29:33.411Z,10.20
2022-10-05T07:32:21.317Z,10.40
2022-10-05T07:35:00.612Z,10.60
2022-10-05T07:37:57.776Z,10.70
2022-10-05T07:40:39.179Z,10.90
2022-10-05T07:43:22.849Z,11.10
2022-10-05T07:45:59.115Z,11.20
2022-10-05T07:48:39.014Z,11.40
2022-10-05T07:51:22.453Z,11.50
2022-10-05T07:54:07.625Z,11.70
2022-10-05T07:56:43.359Z,11.80
2022-10-05T07:59:28.122Z,12.00
2022-10-05T08:02:13.161Z,12.20
2022-10-05T08:04:52.442Z,12.30
2022-10-05T08:07:21.351Z,12.40
2022-10-05T08:09:59.981Z,12.60
2022-10-05T08:12:35.742Z,12.70
2022-10-05T08:15:14.854Z,12.90
2022-10-05T08:17:54.118Z,13.00
2022-10-05T08:20:39.805Z,13.10
2022-10-05T08:23:22.312Z,13.30
2022-10-05T08:26:06.315Z,13.40
2022-10-05T08:28:39.317Z,13.50
2022-10-05T08:31:20.616Z,13.60
2022-10-05T08:34:02.796Z,13.70
2022-10-05T08:36:53.557Z,13.80
2022-10-05T08:39:25.688Z,13.90
2022-10-05T08:42:49.499Z,14.10
2022-10-05T08:46:01.589Z,14.30
2022-10-05T08:49:16.433Z,14.50
2022-10-05T08:52:10.538Z,14.60
2022-10-05T08:55:35.257Z,14.80
2022-10-05T08:58:47.105Z,15.00
2022-10-05T09:01:24.206Z,15.10
2022-10-05T09:04:46.173Z,15.30
2022-10-05T09:07:30.386Z,15.50
2022-10-05T09:10:46.145Z,15.70
2022-10-05T09:13:57.720Z,15.90
2022-10-05T09:17:15.576Z,16.10
2022-10-05T09:20:30.250Z,16.30
2022-10-05T09:23:04.182Z,16.50
2022-10-05T09:25:55.371Z,16.70
2022-10-05T09:28:38.036Z,16.80
2022-10-05T09:31:38.024Z,17.00
2022-10-05T09:35:05.675Z,17.20
2022-10-05T09:38:14.999Z,17.40
2022-10-05T09:41:39.033Z,17.60
2022-10-05T09:45:02.796Z,17.80
2022-10-05T09:48:34.066Z,17.90
2022-10-05T09:51:51.152Z,18.10
2022-10-05T09:55:10.776Z,18.30
2022-10-05T09:58:20.261Z,18.50
2022-10-05T10:01:29.184Z,18.60
2022-10-05T10:04:38.709Z,18.90
2022-10-05T10:07:48.511Z,19.10
2022-10-05T10:10:55.615Z,19.30
2022-10-05T10:13:53.696Z,19.40
2022-10-05T10:16:57.375Z,19.60
2022-10-05T10:20:23.081Z,19.70
2022-10-05T10:23:24.747Z,19.80
2022-10-05T10:26:49.041Z,20.00
2022-10-05T10:30:19.500Z,20.20
2022-10-05T10:33:45.587Z,20.40
2022-10-05T10:36:21.788Z,20.50
2022-10-05T10:39:03.137Z,20.60
2022-10-05T10:42:14.741Z,20.70
2022-10-05T10:45:13.681Z,20.80
2022-10-05T10:48:00.198Z,20.90
2022-10-05T10:51:18.526Z,21.00
2022-10-05T10:54:33.079Z,21.00
2022-10-05T10:57:10.199Z,21.10
2022-10-05T11:00:23.771Z,21.20
2022-10-05T11:03:22.750Z,21.30
2022-10-05T11:06:18.847Z,21.50
2022-10-05T11:09:46.776Z,21.60
2022-10-05T11:13:08.528Z,21.80
2022-10-05T11:16:18.704Z,21.90
2022-10-05T11:19:12.204Z,22.10
2022-10-05T11:22:01.519Z,22.20
2022-10-05T11:25:08.887Z,22.30
2022-10-05T11:28:04.926Z,22.50
2022-10-05T11:31:29.254Z,22.80
2022-10-05T11:34:42.908Z,23.20
2022-10-05T11:37:49.652Z,23.40
2022-10-05T11:41:03.202Z,23.70
2022-10-05T11:44:22.325Z,24.10
2022-10-05T11:47:04.568Z,24.40
2022-10-05T11:49:43.810Z,24.80
2022-10-05T11:52:22.311Z,25.10
2022-10-05T11:55:19.326Z,25.50
2022-10-05T11:57:56.943Z,25.90
2022-10-05T12:00:41.140Z,26.30
2022-10-05T12:03:38.722Z,26.60
2022-10-05T12:06:30.606Z,26.90
2022-10-05T12:09:18.068Z,27.10
2022-10-05T12:12:07.622Z,27.20
2022-10-05T12:14:54.963Z,27.40
2022-10-05T12:17:36.912Z,27.50
2022-10-05T12:20:17.060Z,27.70
2022-10-05T12:22:53.314Z,27.80
2022-10-05T12:25:31.622Z,28.00
2022-10-05T12:28:07.116Z,28.10
2022-10-05T12:31:03.311Z,28.20
2022-10-05T12:33:41.270Z,28.30
2022-10-05T12:36:16.039Z,28.50
2022-10-05T12:38:54.668Z,28.60
2022-10-05T12:41:33.037Z,28.60
2022-10-05T12:44:24.294Z,28.60
2022-10-05T12:47:13.408Z,28.60
2022-10-05T12:49:59.086Z,28.60
2022-10-05T12:52:48.268Z,28.50
2022-10-05T12:55:27.062Z,28.40
2022-10-05T12:58:10.110Z,28.30
2022-10-05T13:00:49.822Z,28.20
2022-10-05T13:03:26.255Z,28.00
2022-10-05T13:06:10.819Z,27.90
2022-10-05T13:08:54.616Z,27.80
2022-10-05T13:11:31.694Z,27.80
2022-10-05T13:14:12.515Z,27.70
2022-10-05T13:16:55.161Z,27.60
2022-10-05T13:19:40.027Z,27.50
2022-10-05T13:22:27.534Z,27.30
2022-10-05T13:25:17.315Z,27.30
2022-10-05T13:28:06.167Z,27.20
2022-10-05T13:30:35.212Z,27.30
2022-10-05T13:33:17.911Z,27.30
2022-10-05T13:36:00.405Z,27.30
2022-10-05T13:38:43.901Z,27.00
2022-10-05T13:41:27.534Z,26.80
2022-10-05T13:44:14.889Z,26.70
2022-10-05T13:46:49.718Z,26.60
2022-10-05T13:49:28.851Z,26.60
2022-10-05T13:52:12.078Z,26.60
2022-10-05T13:54:51.881Z,26.60
2022-10-05T13:57:45.070Z,26.50
2022-10-05T14:00:26.275Z,26.50
2022-10-05T14:02:57.801Z,26.50
2022-10-05T14:05:28.954Z,26.50
2022-10-05T14:08:17.347Z,26.60
2022-10-05T14:10:48.562Z,26.70
2022-10-05T14:13:24.858Z,26.70
2022-10-05T14:16:04.590Z,26.70
2022-10-05T14:18:37.869Z,26.70
2022-10-05T14:21:22.127Z,26.70
2022-10-05T14:23:52.488Z,26.70
2022-10-05T14:26:33.841Z,26.60
2022-10-05T14:29:16.575Z,26.60
2022-10-05T14:31:54.637Z,26.60
2022-10-05T14:34:34.720Z,26.60
2022-10-05T14:37:19.036Z,26.60
2022-10-05T14:39:51.900Z,26.60
2022-10-05T14:42:24.552Z,26.70
2022-10-05T14:45:15.225Z,27.00
2022-10-05T14:47:50.650Z,27.20
2022-10-05T14:50:26.003Z,27.50
2022-10-05T14:53:16.562Z,27.70
2022-10-05T14:56:32.163Z,27.60
2022-10-05T14:59:23.235Z,27.40
2022-10-05T15:02:01.952Z,27.10
2022-10-05T15:04:49.878Z,26.80
2022-10-05T15:07:28.330Z,26.60
2022-10-05T15:10:22.509Z,26.40
2022-10-05T15:12:55.026Z,26.20
2022-10-05T15:15:35.955Z,26.00
2022-10-05T15:18:19.615Z,25.90
2022-10-05T15:21:00.335Z,25.80
2022-10-05T15:23:41.095Z,25.60
2022-10-05T15:26:32.109Z,25.50
2022-10-05T15:29:10.998Z,25.40
2022-10-05T15:31:51.123Z,25.30
2022-10-05T15:34:29.386Z,25.30
2022-10-05T15:37:09.559Z,25.20
2022-10-05T15:39:48.846Z,25.10
2022-10-05T15:42:21.178Z,25.00
2022-10-05T15:45:06.119Z,24.90
2022-10-05T15:47:52.551Z,24.70
2022-10-05T15:50:26.931Z,24.60
2022-10-05T15:53:05.809Z,24.40
2022-10-05T15:55:47.074Z,24.10
2022-10-05T15:58:53.748Z,23.90
2022-10-05T16:01:44.973Z,23.60
2022-10-05T16:04:21.441Z,23.30
2022-10-05T16:07:12.656Z,23.10
2022-10-05T16:09:53.210Z,22.80
2022-10-05T16:12:43.632Z,22.50
2022-10-05T16:15:26.319Z,22.30
2022-10-05T16:18:32.701Z,22.00
2022-10-05T16:21:13.997Z,21.80
2022-10-05T16:24:05.023Z,21.50
2022-10-05T16:26:56.869Z,21.30
2022-10-05T16:29:40.286Z,21.10
2022-10-05T16:32:17.543Z,20.80
2022-10-05T16:35:09.430Z,20.60
2022-10-05T16:37:49.595Z,20.40
2022-10-05T16:40:33.161Z,20.10
2022-10-05T16:43:19.616Z,19.90
2022-10-05T16:46:10.350Z,19.70
2022-10-05T16:48:53.277Z,19.50
2022-10-05T16:51:31.944Z,19.40
2022-10-05T16:54:18.333Z,19.20
2022-10-05T16:56:53.524Z,19.10
2022-10-05T17:00:19.617Z,18.90
2022-10-05T17:03:08.590Z,18.70
2022-10-05T17:06:17.744Z,18.60
2022-10-05T17:09:29.215Z,18.40
2022-10-05T17:12:17.131Z,18.20
2022-10-05T17:15:10.227Z,18.10
2022-10-05T17:18:16.241Z,17.90
2022-10-05T17:20:52.106Z,17.90
2022-10-05T17:23:54.440Z,17.70
2022-10-05T17:26:55.618Z,17.60
2022-10-05T17:29:42.682Z,17.50
2022-10-05T17:32:33.422Z,17.40
2022-10-05T17:35:18.913Z,17.30
2022-10-05T17:38:14.487Z,17.20
2022-10-05T17:41:15.308Z,17.10
2022-10-05T17:44:24.794Z,17.00
2022-10-05T17:46:56.727Z,17.00
2022-10-05T17:50:09.690Z,16.90
2022-10-05T17:52:59.967Z,16.80
2022-10-05T17:55:47.835Z,16.70
2022-10-05T17:59:03.513Z,16.50
2022-10-05T18:01:35.922Z,16.50
2022-10-05T18:04:34.416Z,16.40
2022-10-05T18:07:16.606Z,16.30
2022-10-05T18:10:28.936Z,16.20
2022-10-05T18:13:23.843Z,16.20
2022-10-05T18:15:53.882Z,16.10
2022-10-05T18:18:57.217Z,16.00
2022-10-05T18:22:01.385Z,16.00
2022-10-05T18:25:03.834Z,15.90
2022-10-05T18:28:09.993Z,15.80
2022-10-05T18:31:01.796Z,15.70
2022-10-05T18:33:59.530Z,15.60
2022-10-05T18:36:55.978Z,15.50
2022-10-05T18:39:46.402Z,15.50
2022-10-05T18:42:27.142Z,15.40
2022-10-05T18:45:02.723Z,15.40
2022-10-05T18:47:45.190Z,15.30
2022-10-05T18:50:27.820Z,15.30
2022-10-05T18:53:15.543Z,15.20
2022-10-05T18:55:54.329Z,15.10
2022-10-05T18:58:29.387Z,15.00
2022-10-05T19:01:43.511Z,14.90
2022-10-05T19:04:29.182Z,14.80
2022-10-05T19:07:18.691Z,14.80
2022-10-05T19:10:05.356Z,14.70
2022-10-05T19:12:53.018Z,14.60
2022-10-05T19:15:30.765Z,14.50
2022-10-05T19:18:36.198Z,14.50
2022-10-05T19:21:24.548Z,14.40
2022-10-05T19:24:33.718Z,14.30
2022-10-05T19:27:12.420Z,14.30
2022-10-05T19:30:11.479Z,14.20
2022-10-05T19:33:04.562Z,14.10
2022-10-05T19:35:48.565Z,14.00
2022-10-05T19:38:30.161Z,13.90
2022-10-05T19:41:12.777Z,13.90
2022-10-05T19:44:14.407Z,13.80
2022-10-05T19:46:59.696Z,13.70
2022-10-05T19:49:43.497Z,13.70
2022-10-05T19:52:17.019Z,13.60
2022-10-05T19:54:48.941Z,13.60
2022-10-05T19:57:18.821Z,13.50
2022-10-05T19:59:48.954Z,13.50
2022-10-05T20:02:18.376Z,13.40
2022-10-05T20:04:49.526Z,13.40
2022-10-05T20:07:20.681Z,13.30
2022-10-05T20:09:58.125Z,13.30
2022-10-05T20:12:50.503Z,13.20
2022-10-05T20:15:39.970Z,13.20
2022-10-05T20:19:08.233Z,13.20
2022-10-05T20:21:44.726Z,13.20
2022-10-05T20:24:15.949Z,13.10
2022-10-05T20:27:16.080Z,13.10
2022-10-05T20:29:46.840Z,13.00
2022-10-05T20:32:17.920Z,13.00
2022-10-05T20:34:49.311Z,12.90
2022-10-05T20:37:19.999Z,12.90
2022-10-05T20:39:48.470Z,12.80
2022-10-05T20:42:19.294Z,12.80
2022-10-05T20:44:52.903Z,12.80
2022-10-05T20:47:24.020Z,12.70
2022-10-05T20:49:53.351Z,12.60
2022-10-05T20:52:23.090Z,12.60
2022-10-05T20:54:58.699Z,12.50
2022-10-05T20:57:28.219Z,12.50
2022-10-05T20:59:56.417Z,12.40
2022-10-05T21:02:25.043Z,12.40
2022-10-05T21:04:53.280Z,12.40
2022-10-05T21:07:23.257Z,12.30
2022-10-05T21:09:51.603Z,12.20
2022-10-05T21:12:19.782Z,12.20
2022-10-05T21:14:49.326Z,12.20
2022-10-05T21:17:17.421Z,12.10
2022-10-05T21:19:45.614Z,12.10
2022-10-05T21:22:13.954Z,12.10
2022-10-05T21:24:42.612Z,12.00
2022-10-05T21:27:11.009Z,12.00
2022-10-05T21:29:41.070Z,11.90
2022-10-05T21:32:11.870Z,11.90
2022-10-05T21:34:40.646Z,11.90
2022-10-05T21:37:09.745Z,11.90
2022-10-05T21:39:37.821Z,11.80
2022-10-05T21:42:06.070Z,11.80
2022-10-05T21:44:34.195Z,11.80
2022-10-05T21:47:04.180Z,11.70
2022-10-05T21:49:34.302Z,11.70
2022-10-05T21:52:05.362Z,11.70
2022-10-05T21:54:35.012Z,11.60
2022-10-05T21:57:03.906Z,11.60
2022-10-05T21:59:35.622Z,11.50
2022-10-05T22:02:03.710Z,11.50
2022-10-05T22:04:33.188Z,11.50
2022-10-05T22:07:01.331Z,11.40
2022-10-05T22:09:29.451Z,11.40
2022-10-05T22:11:57.660Z,11.40
2022-10-05T22:14:26.034Z,11.30
2022-10-05T22:16:54.630Z,11.30
2022-10-05T22:19:22.872Z,11.30
2022-10-05T22:21:52.476Z,11.20
2022-10-05T22:24:20.573Z,11.20
2022-10-05T22:26:51.573Z,11.20
2022-10-05T22:29:21.219Z,11.10
2022-10-05T22:31:50.178Z,11.10
2022-10-05T22:34:19.537Z,11.10
2022-10-05T22:36:49.242Z,11.00
2022-10-05T22:39:19.221Z,11.00
2022-10-05T22:41:47.471Z,11.00
2022-10-05T22:44:15.713Z,10.90
2022-10-05T22:46:43.969Z,10.90
2022-10-05T22:49:12.081Z,10.90
2022-10-05T22:51:40.252Z,10.90
2022-10-05T22:54:08.344Z,10.80
2022-10-05T22:56:37.970Z,10.80
2022-10-05T22:59:06.098Z,10.80
2022-10-05T23:01:34.311Z,10.80
2022-10-05T23:04:04.328Z,10.70
2022-10-05T23:06:32.792Z,10.70
2022-10-05T23:09:00.891Z,10.70
2022-10-05T23:11:31.317Z,10.60
2022-10-05T23:14:00.899Z,10.60
2022-10-05T23:16:30.400Z,10.60
2022-10-05T23:19:00.245Z,10.60
2022-10-05T23:21:30.742Z,10.60
2022-10-05T23:23:58.929Z,10.50
2022-10-05T23:26:27.459Z,10.50
2022-10-05T23:28:55.562Z,10.50
2022-10-05T23:31:28.775Z,10.50
2022-10-05T23:33:57.631Z,10.50
2022-10-05T23:36:28.246Z,10.50
2022-10-05T23:38:56.321Z,10.40
2022-10-05T23:41:25.387Z,10.40
2022-10-05T23:43:55.775Z,10.50
2022-10-05T23:46:25.341Z,10.40
2022-10-05T23:48:53.456Z,10.40
2022-10-05T23:51:21.777Z,10.50
2022-10-05T23:53:49.943Z,10.50
2022-10-05T23:56:18.032Z,10.40
2022-10-05T23:58:46.210Z,10.50
